Time;durP1;ratioP1;P1;durP2;ratioP2;P2;SDS_P1;SDS_P2;PMS_P1;PMS_P2;Temp;Humidity;BMP_temperature;BMP_pressure;BME280_temperature;BME280_humidity;BME280_pressure;Samples;Min_cycle;Max_cycle;Signal;HPM_P1;HPM_P2
2022/08/07 00:00:17;;;;;;;5.97;4.07;;;;;;;;;;5053067;28;20041;-64
2022/08/07 00:02:43;;;;;;;6.25;4.20;;;;;;;;;;5053208;28;20159;-64
2022/08/07 00:05:09;;;;;;;4.95;4.05;;;;;;;;;;5049251;28;20116;-64
2022/08/07 00:07:35;;;;;;;5.15;3.65;;;;;;;;;;5039687;28;20117;-64
2022/08/07 00:10:01;;;;;;;6.35;3.92;;;;;;;;;;5048434;28;20041;-64
2022/08/07 00:12:27;;;;;;;5.80;4.05;;;;;;;;;;5036485;28;20068;-64
2022/08/07 00:14:53;;;;;;;5.07;3.47;;;;;;;;;;5033229;28;20048;-64
2022/08/07 00:17:19;;;;;;;4.85;3.25;;;;;;;;;;5033077;28;20120;-64
2022/08/07 00:19:46;;;;;;;4.18;2.90;;;;;;;;;;5036842;28;20106;-64
2022/08/07 00:22:12;;;;;;;7.22;3.33;;;;;;;;;;5044217;28;20037;-64
2022/08/07 00:24:38;;;;;;;5.35;3.67;;;;;;;;;;5053125;28;20052;-64
2022/08/07 00:27:04;;;;;;;5.55;3.85;;;;;;;;;;5052799;28;20051;-63
2022/08/07 00:29:30;;;;;;;6.82;4.25;;;;;;;;;;5052091;28;20041;-64
2022/08/07 00:31:58;;;;;;;5.43;4.20;;;;;;;;;;5052709;28;20036;-64
2022/08/07 00:34:25;;;;;;;7.10;4.00;;;;;;;;;;5045620;28;20041;-64
2022/08/07 00:36:51;;;;;;;6.03;4.15;;;;;;;;;;5043571;28;20033;-64
2022/08/07 00:39:18;;;;;;;5.78;4.07;;;;;;;;;;5052279;28;20044;-64
2022/08/07 00:41:56;;;;;;;6.15;4.13;;;;;;;;;;5052388;28;20506;-64
2022/08/07 00:44:22;;;;;;;6.60;4.18;;;;;;;;;;5052032;28;20048;-64
2022/08/07 00:46:48;;;;;;;7.30;4.38;;;;;;;;;;5037478;28;20033;-64
2022/08/07 00:49:14;;;;;;;5.82;4.30;;;;;;;;;;5039055;28;20052;-64
2022/08/07 00:51:40;;;;;;;6.30;3.70;;;;;;;;;;5044990;28;20036;-64
2022/08/07 00:54:06;;;;;;;4.75;3.67;;;;;;;;;;5051960;28;20039;-64
2022/08/07 00:56:33;;;;;;;6.32;4.15;;;;;;;;;;5052348;28;20116;-64
2022/08/07 00:58:59;;;;;;;5.68;4.13;;;;;;;;;;5051505;28;20466;-64
2022/08/07 01:01:26;;;;;;;5.03;3.78;;;;;;;;;;5051744;28;20086;-64
2022/08/07 01:03:52;;;;;;;5.00;3.50;;;;;;;;;;5025660;28;20399;-64
2022/08/07 01:06:18;;;;;;;5.80;3.60;;;;;;;;;;5049609;28;20095;-65
2022/08/07 01:08:45;;;;;;;5.90;3.90;;;;;;;;;;5051521;28;20120;-64
2022/08/07 01:11:12;;;;;;;5.35;3.90;;;;;;;;;;5052145;28;20167;-64
2022/08/07 01:13:39;;;;;;;7.18;4.03;;;;;;;;;;5051709;28;20182;-64
2022/08/07 01:16:05;;;;;;;8.13;4.55;;;;;;;;;;5048267;28;20095;-64
2022/08/07 01:18:32;;;;;;;7.95;4.25;;;;;;;;;;5041797;28;20045;-64
2022/08/07 01:21:14;;;;;;;7.93;4.78;;;;;;;;;;5051885;28;20049;-64
2022/08/07 01:23:40;;;;;;;5.63;3.90;;;;;;;;;;5040807;28;20529;-64
2022/08/07 01:26:07;;;;;;;7.43;4.82;;;;;;;;;;5027155;28;20036;-64
2022/08/07 01:28:33;;;;;;;7.10;4.25;;;;;;;;;;5042386;28;20041;-64
2022/08/07 01:31:00;;;;;;;6.07;4.80;;;;;;;;;;5046917;28;20061;-64
2022/08/07 01:33:26;;;;;;;7.13;4.88;;;;;;;;;;5042212;28;20083;-64
2022/08/07 01:35:52;;;;;;;6.85;4.72;;;;;;;;;;5049847;28;20548;-64
2022/08/07 01:38:19;;;;;;;5.97;4.43;;;;;;;;;;5031413;28;20403;-64
2022/08/07 01:40:45;;;;;;;9.27;4.80;;;;;;;;;;5031584;28;20427;-64
2022/08/07 01:43:11;;;;;;;6.85;4.57;;;;;;;;;;5031631;28;20048;-63
2022/08/07 01:45:38;;;;;;;6.30;4.63;;;;;;;;;;5033732;28;20040;-64
2022/08/07 01:48:05;;;;;;;7.20;4.47;;;;;;;;;;5043415;28;20045;-64
2022/08/07 01:50:31;;;;;;;7.72;4.82;;;;;;;;;;5051162;28;20041;-64
2022/08/07 01:52:58;;;;;;;6.43;4.53;;;;;;;;;;5051585;28;20040;-64
2022/08/07 01:55:28;;;;;;;6.03;4.30;;;;;;;;;;5051112;28;20060;-64
2022/08/07 01:57:57;;;;;;;8.45;4.47;;;;;;;;;;5039395;28;20041;-64
2022/08/07 02:00:25;;;;;;;6.40;4.50;;;;;;;;;;5045905;28;20049;-64
2022/08/07 02:02:56;;;;;;;7.03;4.85;;;;;;;;;;5024385;28;20041;-64
2022/08/07 02:05:45;;;;;;;6.90;4.57;;;;;;;;;;5030114;28;20044;-64
2022/08/07 02:08:12;;;;;;;8.20;4.55;;;;;;;;;;5018811;28;20407;-64
2022/08/07 02:10:39;;;;;;;6.68;4.65;;;;;;;;;;5033354;28;20036;-64
2022/08/07 02:13:05;;;;;;;5.78;4.03;;;;;;;;;;5043150;28;20045;-64
2022/08/07 02:15:32;;;;;;;6.68;4.57;;;;;;;;;;5053607;28;20041;-63
2022/08/07 02:17:59;;;;;;;5.55;4.18;;;;;;;;;;5054820;28;20124;-64
2022/08/07 02:20:25;;;;;;;7.57;4.80;;;;;;;;;;5054959;28;20494;-64
2022/08/07 02:23:01;;;;;;;6.45;4.70;;;;;;;;;;5055108;28;20045;-64
2022/08/07 02:25:29;;;;;;;6.47;4.43;;;;;;;;;;5049317;28;20044;-64
2022/08/07 02:27:56;;;;;;;6.72;4.82;;;;;;;;;;5049375;28;20057;-64
2022/08/07 02:30:22;;;;;;;6.47;4.22;;;;;;;;;;5054622;28;20041;-64
2022/08/07 02:32:49;;;;;;;6.85;4.63;;;;;;;;;;5054958;28;20368;-64
2022/08/07 02:35:17;;;;;;;5.00;3.92;;;;;;;;;;5053977;28;20037;-64
2022/08/07 02:37:44;;;;;;;9.07;3.83;;;;;;;;;;5037832;28;20046;-64
2022/08/07 02:40:11;;;;;;;6.30;4.18;;;;;;;;;;5042277;28;20043;-63
2022/08/07 02:42:37;;;;;;;5.00;3.78;;;;;;;;;;5054990;28;20053;-64
2022/08/07 02:45:04;;;;;;;6.25;3.97;;;;;;;;;;5054050;28;20040;-64
2022/08/07 02:47:31;;;;;;;5.55;4.18;;;;;;;;;;5036793;28;20090;-64
2022/08/07 02:49:57;;;;;;;6.07;4.40;;;;;;;;;;5036922;28;20047;-64
2022/08/07 02:52:26;;;;;;;5.82;3.95;;;;;;;;;;5053925;28;20052;-64
2022/08/07 02:54:53;;;;;;;5.60;4.03;;;;;;;;;;5041986;28;20048;-64
2022/08/07 02:57:20;;;;;;;6.68;4.40;;;;;;;;;;5052399;28;20102;-64
2022/08/07 02:59:49;;;;;;;7.72;4.50;;;;;;;;;;5054196;28;20068;-64
2022/08/07 03:02:15;;;;;;;7.63;5.30;;;;;;;;;;5054477;28;20127;-64
2022/08/07 03:04:43;;;;;;;7.28;4.43;;;;;;;;;;5053962;28;20398;-64
2022/08/07 03:07:09;;;;;;;6.65;3.90;;;;;;;;;;5055236;22;20050;-62
2022/08/07 03:09:35;;;;;;;7.30;3.75;;;;;;;;;;5011270;28;20056;-62
2022/08/07 03:12:03;;;;;;;5.20;3.42;;;;;;;;;;5014358;28;20036;-63
2022/08/07 03:14:29;;;;;;;5.60;4.13;;;;;;;;;;5013828;28;20451;-63
2022/08/07 03:16:56;;;;;;;6.72;4.40;;;;;;;;;;5014377;28;20045;-62
2022/08/07 03:19:23;;;;;;;6.78;4.53;;;;;;;;;;5014052;28;20045;-62
2022/08/07 03:21:50;;;;;;;4.85;3.60;;;;;;;;;;5014650;28;20046;-63
2022/08/07 03:24:16;;;;;;;6.57;4.18;;;;;;;;;;5013512;28;20459;-63
2022/08/07 03:26:42;;;;;;;6.03;4.18;;;;;;;;;;5012982;28;20450;-62
2022/08/07 03:29:09;;;;;;;5.32;3.53;;;;;;;;;;5014016;28;20034;-62
2022/08/07 03:31:36;;;;;;;4.15;3.05;;;;;;;;;;5014103;28;20498;-63
2022/08/07 03:34:03;;;;;;;6.07;3.30;;;;;;;;;;5014037;28;20052;-62
2022/08/07 03:36:30;;;;;;;8.80;4.55;;;;;;;;;;5014015;28;20456;-62
2022/08/07 03:39:04;;;;;;;6.05;4.28;;;;;;;;;;5013225;28;20045;-62
2022/08/07 03:41:31;;;;;;;6.50;3.83;;;;;;;;;;5013731;28;20046;-62
2022/08/07 03:43:57;;;;;;;6.70;4.28;;;;;;;;;;4994706;28;20400;-62
2022/08/07 03:46:24;;;;;;;5.40;3.53;;;;;;;;;;5013304;28;20080;-63
2022/08/07 03:48:51;;;;;;;7.28;4.20;;;;;;;;;;5013452;28;20042;-63
2022/08/07 03:51:17;;;;;;;3.92;2.72;;;;;;;;;;5012909;28;20042;-63
2022/08/07 03:53:43;;;;;;;3.72;3.10;;;;;;;;;;5013665;28;20573;-62
2022/08/07 03:56:10;;;;;;;5.85;3.40;;;;;;;;;;5013287;28;20424;-63
2022/08/07 03:58:37;;;;;;;5.13;4.20;;;;;;;;;;5012908;28;20046;-62
2022/08/07 04:01:03;;;;;;;5.57;3.92;;;;;;;;;;5011828;28;20037;-63
2022/08/07 04:03:29;;;;;;;5.00;3.78;;;;;;;;;;5012599;28;20088;-63
2022/08/07 04:05:55;;;;;;;6.50;4.38;;;;;;;;;;5003052;28;20046;-63
2022/08/07 04:08:21;;;;;;;6.05;4.15;;;;;;;;;;5009283;28;20037;-62
2022/08/07 04:10:48;;;;;;;5.50;4.15;;;;;;;;;;5012624;28;20443;-62
2022/08/07 04:13:15;;;;;;;7.22;4.43;;;;;;;;;;4995637;28;20046;-63
2022/08/07 04:15:42;;;;;;;6.47;4.50;;;;;;;;;;5012551;28;20052;-63
2022/08/07 04:18:10;;;;;;;7.85;4.07;;;;;;;;;;5013483;28;20042;-63
2022/08/07 04:20:36;;;;;;;6.55;4.70;;;;;;;;;;5012429;28;20103;-63
2022/08/07 04:23:03;;;;;;;5.10;3.97;;;;;;;;;;5013045;28;20092;-62
2022/08/07 04:25:29;;;;;;;6.32;4.43;;;;;;;;;;5013113;28;20045;-62
2022/08/07 04:27:55;;;;;;;5.20;3.40;;;;;;;;;;4995568;28;20046;-62
2022/08/07 04:30:21;;;;;;;5.05;3.83;;;;;;;;;;5012081;28;20616;-63
2022/08/07 04:32:48;;;;;;;6.47;3.85;;;;;;;;;;5012737;28;20080;-63
2022/08/07 04:35:14;;;;;;;7.22;4.28;;;;;;;;;;4994621;28;20072;-63
2022/08/07 04:37:40;;;;;;;7.45;4.00;;;;;;;;;;5011908;28;20588;-62
2022/08/07 04:40:06;;;;;;;5.28;4.18;;;;;;;;;;5012725;28;20033;-63
2022/08/07 04:42:33;;;;;;;6.10;3.90;;;;;;;;;;5002902;28;20172;-62
2022/08/07 04:45:01;;;;;;;5.13;4.07;;;;;;;;;;5032458;28;20033;-63
2022/08/07 04:47:30;;;;;;;4.55;3.55;;;;;;;;;;5032713;28;20037;-62
2022/08/07 04:50:02;;;;;;;5.65;4.10;;;;;;;;;;5019940;28;20607;-63
2022/08/07 04:52:38;;;;;;;6.53;4.10;;;;;;;;;;5012631;28;20049;-62
2022/08/07 04:55:23;;;;;;;5.28;3.92;;;;;;;;;;5012584;28;20045;-62
2022/08/07 04:57:52;;;;;;;5.80;4.60;;;;;;;;;;5012708;28;20041;-62
2022/08/07 05:00:21;;;;;;;6.68;4.35;;;;;;;;;;5012456;28;20070;-63
2022/08/07 05:02:47;;;;;;;6.88;4.75;;;;;;;;;;5012566;28;20038;-62
2022/08/07 05:05:28;;;;;;;6.10;4.40;;;;;;;;;;5011468;28;20041;-62
2022/08/07 05:08:02;;;;;;;6.97;4.65;;;;;;;;;;5006598;28;20041;-62
2022/08/07 05:10:37;;;;;;;5.95;4.22;;;;;;;;;;5012271;28;20117;-62
2022/08/07 05:13:08;;;;;;;6.05;4.72;;;;;;;;;;5012455;28;20038;-62
2022/08/07 05:15:36;;;;;;;8.07;4.68;;;;;;;;;;4994750;28;20127;-62
2022/08/07 05:18:06;;;;;;;6.60;4.60;;;;;;;;;;5011402;28;20045;-62
2022/08/07 05:20:36;;;;;;;10.02;4.78;;;;;;;;;;5012184;28;20068;-62
2022/08/07 05:23:05;;;;;;;6.85;4.40;;;;;;;;;;5012259;28;20091;-62
2022/08/07 05:25:31;;;;;;;9.32;6.18;;;;;;;;;;5012073;28;20041;-62
2022/08/07 05:27:58;;;;;;;10.23;5.93;;;;;;;;;;5012219;28;20046;-62
2022/08/07 05:30:25;;;;;;;10.48;5.60;;;;;;;;;;4994109;28;20050;-62
2022/08/07 05:32:51;;;;;;;8.52;6.15;;;;;;;;;;5010935;28;20404;-62
2022/08/07 05:35:18;;;;;;;10.23;5.90;;;;;;;;;;5012064;28;20429;-62
2022/08/07 05:37:45;;;;;;;10.85;6.75;;;;;;;;;;5011556;28;20077;-62
2022/08/07 05:40:12;;;;;;;11.95;6.63;;;;;;;;;;5011912;28;20038;-62
2022/08/07 05:42:38;;;;;;;11.23;6.65;;;;;;;;;;5011745;28;20113;-62
2022/08/07 05:45:05;;;;;;;14.00;7.50;;;;;;;;;;4998620;28;20041;-62
2022/08/07 05:47:31;;;;;;;12.27;8.43;;;;;;;;;;5014881;28;20042;-62
2022/08/07 05:49:58;;;;;;;16.27;9.38;;;;;;;;;;5013445;28;20435;-62
2022/08/07 05:52:24;;;;;;;14.45;9.48;;;;;;;;;;5016140;28;20048;-62
2022/08/07 05:54:50;;;;;;;15.63;9.35;;;;;;;;;;5014276;28;20129;-62
2022/08/07 05:57:16;;;;;;;17.63;9.57;;;;;;;;;;4997721;28;20076;-62
2022/08/07 05:59:43;;;;;;;16.10;10.20;;;;;;;;;;5014749;28;20038;-62
2022/08/07 06:02:13;;;;;;;19.05;10.07;;;;;;;;;;5015992;28;20046;-62
2022/08/07 06:04:41;;;;;;;19.10;10.65;;;;;;;;;;4998206;28;20053;-62
2022/08/07 06:07:07;;;;;;;17.67;10.68;;;;;;;;;;5015062;28;20519;-61
2022/08/07 06:09:34;;;;;;;17.23;11.35;;;;;;;;;;5015596;28;20037;-62
2022/08/07 06:12:00;;;;;;;21.80;12.25;;;;;;;;;;5014495;28;20234;-62
2022/08/07 06:14:26;;;;;;;17.17;11.43;;;;;;;;;;5015249;28;20056;-62
2022/08/07 06:16:53;;;;;;;18.20;11.05;;;;;;;;;;5015321;28;20045;-62
2022/08/07 06:19:19;;;;;;;17.80;12.00;;;;;;;;;;5015510;28;20056;-62
2022/08/07 06:21:46;;;;;;;23.25;12.55;;;;;;;;;;4997161;28;20050;-62
2022/08/07 06:24:12;;;;;;;19.45;12.15;;;;;;;;;;5015459;28;20523;-62
2022/08/07 06:26:39;;;;;;;20.85;12.60;;;;;;;;;;5015110;28;20048;-62
2022/08/07 06:29:05;;;;;;;23.85;13.00;;;;;;;;;;5014443;28;20045;-62
2022/08/07 06:31:31;;;;;;;19.20;11.95;;;;;;;;;;5015370;28;20034;-62
2022/08/07 06:33:57;;;;;;;19.50;11.45;;;;;;;;;;5015133;28;20129;-62
2022/08/07 06:36:26;;;;;;;19.60;11.27;;;;;;;;;;5009676;28;20125;-62
2022/08/07 06:38:53;;;;;;;20.65;11.65;;;;;;;;;;4977907;28;20077;-62
2022/08/07 06:41:23;;;;;;;17.25;11.75;;;;;;;;;;5002087;28;20125;-62
2022/08/07 06:43:50;;;;;;;20.58;11.38;;;;;;;;;;5015168;28;20049;-62
2022/08/07 06:46:16;;;;;;;17.90;11.02;;;;;;;;;;5015410;28;20092;-62
2022/08/07 06:48:43;;;;;;;19.55;12.07;;;;;;;;;;5034544;28;20037;-62
2022/08/07 06:51:09;;;;;;;15.57;10.73;;;;;;;;;;5034794;28;20029;-62
2022/08/07 06:53:38;;;;;;;17.98;10.85;;;;;;;;;;5034656;28;20037;-62
2022/08/07 06:56:05;;;;;;;16.70;10.55;;;;;;;;;;5026427;28;20042;-62
2022/08/07 06:58:34;;;;;;;19.83;11.45;;;;;;;;;;5014327;28;20073;-62
2022/08/07 07:01:01;;;;;;;17.45;11.18;;;;;;;;;;5014487;28;20038;-62
2022/08/07 07:03:27;;;;;;;14.80;10.20;;;;;;;;;;5014788;28;20042;-62
2022/08/07 07:05:53;;;;;;;14.88;10.32;;;;;;;;;;5014646;28;20046;-63
2022/08/07 07:08:24;;;;;;;16.40;10.52;;;;;;;;;;5014351;28;20046;-63
2022/08/07 07:10:50;;;;;;;14.77;10.18;;;;;;;;;;4995691;28;20092;-62
2022/08/07 07:13:18;;;;;;;17.70;10.70;;;;;;;;;;4996585;28;20041;-62
2022/08/07 07:15:49;;;;;;;15.95;9.65;;;;;;;;;;5014407;28;20555;-62
2022/08/07 07:18:21;;;;;;;16.52;9.30;;;;;;;;;;5013921;28;20524;-62
2022/08/07 07:20:53;;;;;;;18.00;10.75;;;;;;;;;;5014149;28;20034;-62
2022/08/07 07:23:19;;;;;;;13.88;9.77;;;;;;;;;;4996430;28;20443;-63
2022/08/07 07:25:47;;;;;;;13.15;8.48;;;;;;;;;;5012871;28;20568;-62
2022/08/07 07:28:13;;;;;;;10.95;7.25;;;;;;;;;;5014112;28;20064;-62
2022/08/07 07:30:52;;;;;;;10.68;6.72;;;;;;;;;;5014110;28;20034;-63
2022/08/07 07:33:19;;;;;;;12.40;5.90;;;;;;;;;;5013654;28;20042;-62
2022/08/07 07:35:47;;;;;;;9.77;6.50;;;;;;;;;;5013127;28;20088;-62
2022/08/07 07:38:14;;;;;;;13.20;8.43;;;;;;;;;;4998791;28;20065;-62
2022/08/07 07:40:41;;;;;;;14.10;7.85;;;;;;;;;;4995920;28;20111;-63
2022/08/07 07:43:08;;;;;;;12.15;7.40;;;;;;;;;;5013871;28;20030;-63
2022/08/07 07:45:34;;;;;;;11.82;8.02;;;;;;;;;;5014317;28;20037;-62
2022/08/07 07:48:02;;;;;;;11.43;7.90;;;;;;;;;;5013598;28;20116;-62
2022/08/07 07:50:29;;;;;;;14.95;7.53;;;;;;;;;;5025730;28;20099;-63
2022/08/07 07:52:56;;;;;;;11.20;7.28;;;;;;;;;;5033626;28;20163;-63
2022/08/07 07:55:22;;;;;;;8.32;6.28;;;;;;;;;;5016632;28;20040;-63
2022/08/07 07:57:49;;;;;;;11.23;7.13;;;;;;;;;;5013613;28;20034;-63
2022/08/07 08:00:16;;;;;;;9.82;6.55;;;;;;;;;;5013500;28;20419;-62
2022/08/07 08:02:42;;;;;;;12.20;7.30;;;;;;;;;;5013490;28;20128;-62
2022/08/07 08:05:09;;;;;;;11.20;6.35;;;;;;;;;;5013421;28;20492;-63
2022/08/07 08:07:35;;;;;;;10.27;6.70;;;;;;;;;;5013455;28;20038;-62
2022/08/07 08:10:02;;;;;;;10.43;6.30;;;;;;;;;;5012724;28;20044;-63
2022/08/07 08:12:28;;;;;;;8.30;5.90;;;;;;;;;;5012722;28;20038;-63
2022/08/07 08:14:54;;;;;;;9.98;6.53;;;;;;;;;;5013249;28;20045;-62
2022/08/07 08:17:21;;;;;;;9.50;5.90;;;;;;;;;;5013036;28;20038;-63
2022/08/07 08:19:48;;;;;;;9.98;6.43;;;;;;;;;;5012848;28;20045;-62
2022/08/07 08:27:46;;;;;;;6.72;5.25;;;;;;;;;;5012892;28;20050;-63
2022/08/07 08:30:13;;;;;;;7.38;5.68;;;;;;;;;;5012878;28;20080;-63
2022/08/07 08:32:47;;;;;;;8.18;6.15;;;;;;;;;;5012805;28;20069;-63
2022/08/07 08:35:16;;;;;;;8.90;5.88;;;;;;;;;;5013552;28;20046;-63
2022/08/07 08:37:44;;;;;;;7.75;6.00;;;;;;;;;;5011982;28;20030;-63
2022/08/07 08:40:15;;;;;;;9.73;5.85;;;;;;;;;;5012182;28;20045;-62
2022/08/07 08:42:52;;;;;;;8.63;5.90;;;;;;;;;;5012077;28;20093;-63
2022/08/07 08:45:36;;;;;;;8.95;5.55;;;;;;;;;;5012616;28;20042;-63
2022/08/07 08:48:13;;;;;;;8.32;5.40;;;;;;;;;;5012689;28;20076;-63
2022/08/07 08:50:46;;;;;;;9.25;5.57;;;;;;;;;;5011759;28;20042;-63
2022/08/07 08:53:25;;;;;;;8.10;5.75;;;;;;;;;;5012204;28;20049;-63
2022/08/07 08:55:56;;;;;;;7.78;5.38;;;;;;;;;;5012616;28;20057;-63
2022/08/07 08:58:35;;;;;;;8.35;5.50;;;;;;;;;;5011727;28;20069;-63
2022/08/07 09:01:11;;;;;;;8.57;5.25;;;;;;;;;;4992755;28;20409;-63
2022/08/07 09:03:58;;;;;;;7.53;4.70;;;;;;;;;;4992824;28;20049;-63
2022/08/07 09:06:43;;;;;;;8.85;5.30;;;;;;;;;;4992819;28;20046;-63
2022/08/07 09:09:24;;;;;;;7.22;4.55;;;;;;;;;;5055999;22;20044;-65
2022/08/07 09:11:55;;;;;;;7.93;4.82;;;;;;;;;;5034330;28;20041;-63
2022/08/07 09:14:32;;;;;;;7.72;4.82;;;;;;;;;;5051869;28;20041;-63
2022/08/07 09:17:10;;;;;;;6.40;4.50;;;;;;;;;;5051932;28;20045;-63
2022/08/07 09:19:52;;;;;;;7.03;4.65;;;;;;;;;;5051325;28;20052;-63
2022/08/07 09:22:28;;;;;;;6.50;4.88;;;;;;;;;;5051132;28;20530;-63
2022/08/07 09:25:10;;;;;;;8.90;5.03;;;;;;;;;;5051690;28;20410;-63
2022/08/07 09:27:39;;;;;;;6.32;4.28;;;;;;;;;;5051798;28;20105;-63
2022/08/07 09:30:06;;;;;;;5.55;4.07;;;;;;;;;;5033854;28;20495;-63
2022/08/07 09:32:32;;;;;;;4.40;3.60;;;;;;;;;;5051464;28;20048;-63
2022/08/07 09:35:01;;;;;;;6.55;4.68;;;;;;;;;;5033489;28;20045;-63
2022/08/07 09:37:36;;;;;;;8.27;4.63;;;;;;;;;;5050607;28;20041;-63
2022/08/07 09:40:08;;;;;;;5.72;4.25;;;;;;;;;;5051482;28;20072;-63
2022/08/07 09:42:46;;;;;;;5.65;4.15;;;;;;;;;;5051566;28;20063;-63
2022/08/07 09:45:32;;;;;;;6.53;4.43;;;;;;;;;;5051586;28;20041;-63
2022/08/07 09:48:01;;;;;;;6.90;3.70;;;;;;;;;;5040500;28;20511;-63
2022/08/07 09:50:51;;;;;;;6.45;4.30;;;;;;;;;;5032541;28;20041;-63
2022/08/07 09:53:19;;;;;;;6.97;3.72;;;;;;;;;;5033814;28;20045;-63
2022/08/07 09:56:03;;;;;;;5.93;3.80;;;;;;;;;;5051176;28;20041;-63
2022/08/07 09:58:29;;;;;;;5.63;3.70;;;;;;;;;;5051252;28;20045;-63
2022/08/07 10:00:55;;;;;;;5.25;3.75;;;;;;;;;;5033351;28;20052;-63
2022/08/07 10:03:30;;;;;;;5.28;3.90;;;;;;;;;;5033480;28;20127;-63
2022/08/07 10:06:15;;;;;;;6.60;3.72;;;;;;;;;;5049723;28;20494;-64
2022/08/07 10:08:42;;;;;;;5.38;3.78;;;;;;;;;;5031212;28;20406;-64
2022/08/07 10:11:27;;;;;;;4.60;3.60;;;;;;;;;;5031289;28;20095;-64
2022/08/07 10:13:53;;;;;;;5.50;3.75;;;;;;;;;;5031475;28;20391;-64
2022/08/07 10:16:29;;;;;;;4.53;3.33;;;;;;;;;;5013423;28;20050;-64
2022/08/07 10:19:15;;;;;;;4.30;3.08;;;;;;;;;;5032473;28;20045;-64
2022/08/07 10:21:47;;;;;;;3.38;2.55;;;;;;;;;;5012388;28;20071;-64
2022/08/07 10:24:28;;;;;;;4.65;2.70;;;;;;;;;;5051032;28;20084;-64
2022/08/07 10:27:03;;;;;;;5.45;3.15;;;;;;;;;;5051170;28;20049;-65
2022/08/07 10:29:35;;;;;;;4.18;2.53;;;;;;;;;;5051287;28;20102;-64
2022/08/07 10:32:04;;;;;;;5.28;2.45;;;;;;;;;;5050936;28;20072;-64
2022/08/07 10:34:48;;;;;;;4.30;3.15;;;;;;;;;;5031968;28;20507;-64
2022/08/07 10:37:14;;;;;;;5.63;3.60;;;;;;;;;;5054557;28;20051;-64
2022/08/07 10:39:53;;;;;;;5.38;3.40;;;;;;;;;;5054760;28;20120;-64
2022/08/07 10:42:27;;;;;;;4.65;3.83;;;;;;;;;;5054951;28;20056;-64
2022/08/07 10:44:59;;;;;;;5.40;3.42;;;;;;;;;;5037166;28;20106;-64
2022/08/07 10:47:33;;;;;;;5.30;3.15;;;;;;;;;;5035022;28;20041;-64
2022/08/07 10:50:10;;;;;;;4.70;2.88;;;;;;;;;;5053647;28;20033;-64
2022/08/07 10:52:58;;;;;;;4.93;3.33;;;;;;;;;;5029140;28;20048;-64
2022/08/07 10:55:25;;;;;;;3.35;2.75;;;;;;;;;;5053860;28;20482;-64
2022/08/07 10:58:00;;;;;;;3.33;2.92;;;;;;;;;;5054700;28;20065;-64
2022/08/07 11:00:29;;;;;;;3.97;2.70;;;;;;;;;;5054046;28;20033;-64
2022/08/07 11:03:08;;;;;;;4.18;2.80;;;;;;;;;;5053609;28;20036;-64
2022/08/07 11:05:42;;;;;;;3.67;2.65;;;;;;;;;;5053909;28;20079;-64
2022/08/07 11:08:25;;;;;;;3.80;2.70;;;;;;;;;;5054250;28;20037;-64
2022/08/07 11:11:01;;;;;;;4.18;2.90;;;;;;;;;;5054319;28;20045;-64
2022/08/07 11:13:34;;;;;;;2.65;2.30;;;;;;;;;;5053888;28;20052;-64
2022/08/07 11:16:20;;;;;;;4.22;2.60;;;;;;;;;;5052932;28;20073;-64
2022/08/07 11:18:51;;;;;;;4.20;3.05;;;;;;;;;;5028340;28;20041;-64
2022/08/07 11:21:25;;;;;;;3.15;2.50;;;;;;;;;;5053959;28;20517;-64
2022/08/07 11:23:58;;;;;;;4.40;3.03;;;;;;;;;;5054307;28;20411;-64
2022/08/07 11:26:39;;;;;;;3.60;2.63;;;;;;;;;;5052874;28;20468;-64
2022/08/07 11:29:16;;;;;;;4.45;2.80;;;;;;;;;;5053420;28;20040;-64
2022/08/07 11:31:42;;;;;;;5.50;2.90;;;;;;;;;;5054140;28;20033;-64
2022/08/07 11:34:20;;;;;;;3.83;2.45;;;;;;;;;;5054064;28;20456;-64
2022/08/07 11:36:48;;;;;;;4.95;2.60;;;;;;;;;;5053222;28;20057;-64
2022/08/07 11:39:15;;;;;;;4.32;2.80;;;;;;;;;;5052313;28;20379;-64
2022/08/07 11:41:47;;;;;;;3.97;2.72;;;;;;;;;;5053526;28;20060;-64
2022/08/07 11:44:27;;;;;;;4.80;2.50;;;;;;;;;;5036137;28;20053;-64
2022/08/07 11:47:12;;;;;;;3.90;2.53;;;;;;;;;;5052195;28;20036;-64
2022/08/07 11:50:02;;;;;;;3.30;2.28;;;;;;;;;;5053279;28;20434;-64
2022/08/07 11:52:34;;;;;;;5.50;3.20;;;;;;;;;;5053836;28;20068;-64
2022/08/07 11:55:04;;;;;;;3.35;2.60;;;;;;;;;;5052650;28;20287;-64
2022/08/07 11:57:55;;;;;;;3.20;2.20;;;;;;;;;;5053230;28;20045;-64
2022/08/07 12:00:36;;;;;;;3.88;2.92;;;;;;;;;;5053427;28;20057;-64
2022/08/07 12:03:21;;;;;;;4.50;3.10;;;;;;;;;;5052006;28;20040;-64
2022/08/07 12:06:25;;;;;;;4.05;2.65;;;;;;;;;;5033704;28;20069;-64
2022/08/07 12:08:54;;;;;;;2.88;2.30;;;;;;;;;;4952441;28;20054;-64
2022/08/07 12:11:27;;;;;;;4.35;2.38;;;;;;;;;;4952971;29;20041;-64
2022/08/07 12:13:58;;;;;;;3.75;2.38;;;;;;;;;;5007199;28;20059;-64
2022/08/07 12:16:28;;;;;;;5.22;2.17;;;;;;;;;;5053056;28;20056;-64
2022/08/07 12:19:06;;;;;;;3.72;2.05;;;;;;;;;;5051440;28;20044;-64
2022/08/07 12:21:50;;;;;;;3.95;2.30;;;;;;;;;;5035105;28;20049;-64
2022/08/07 12:24:35;;;;;;;2.97;1.80;;;;;;;;;;5035212;28;20044;-64
2022/08/07 12:27:08;;;;;;;3.08;1.30;;;;;;;;;;5052410;28;20048;-64
2022/08/07 12:29:42;;;;;;;7.10;1.70;;;;;;;;;;5052651;28;20486;-64
2022/08/07 12:32:14;;;;;;;3.38;1.50;;;;;;;;;;5052081;28;20040;-64
2022/08/07 12:34:41;;;;;;;2.72;1.48;;;;;;;;;;5045132;28;20029;-64
2022/08/07 12:37:08;;;;;;;3.10;1.70;;;;;;;;;;5040826;28;20048;-64
2022/08/07 12:39:34;;;;;;;1.90;1.50;;;;;;;;;;5014630;28;20049;-64
2022/08/07 12:42:01;;;;;;;2.45;1.60;;;;;;;;;;5032604;28;20513;-64
2022/08/07 12:44:28;;;;;;;2.25;1.90;;;;;;;;;;5032346;28;20131;-63
2022/08/07 12:47:02;;;;;;;1.45;1.25;;;;;;;;;;5045760;28;20128;-64
2022/08/07 12:49:28;;;;;;;2.78;1.70;;;;;;;;;;5052238;28;20120;-63
2022/08/07 12:52:14;;;;;;;2.55;1.60;;;;;;;;;;5051657;28;20513;-64
2022/08/07 12:54:46;;;;;;;1.98;1.58;;;;;;;;;;5052195;28;20520;-64
2022/08/07 12:57:13;;;;;;;3.30;1.77;;;;;;;;;;5051929;28;20041;-63
2022/08/07 12:59:40;;;;;;;1.60;1.50;;;;;;;;;;5051843;28;20040;-64
2022/08/07 13:02:26;;;;;;;2.13;1.50;;;;;;;;;;5050277;28;20395;-64
2022/08/07 13:05:05;;;;;;;2.03;1.55;;;;;;;;;;5046298;28;20102;-64
2022/08/07 13:08:09;;;;;;;2.10;1.33;;;;;;;;;;5051948;28;20403;-64
2022/08/07 13:10:38;;;;;;;2.20;1.35;;;;;;;;;;4990192;28;20042;-64
2022/08/07 13:13:23;;;;;;;2.40;1.25;;;;;;;;;;4990403;28;20057;-64
2022/08/07 13:16:06;;;;;;;2.67;1.17;;;;;;;;;;5009583;28;20072;-64
2022/08/07 13:18:42;;;;;;;2.78;1.13;;;;;;;;;;5033557;28;20037;-64
2022/08/07 13:21:11;;;;;;;2.03;1.25;;;;;;;;;;5051919;28;20063;-64
2022/08/07 13:24:15;;;;;;;2.25;1.30;;;;;;;;;;5051919;28;20051;-64
2022/08/07 13:26:43;;;;;;;1.75;1.30;;;;;;;;;;4989223;28;20497;-64
2022/08/07 13:29:14;;;;;;;1.75;1.20;;;;;;;;;;4990045;28;20042;-64
2022/08/07 13:31:45;;;;;;;3.75;1.38;;;;;;;;;;5021035;28;20052;-64
2022/08/07 13:34:11;;;;;;;;;;;;;;;;;;5052017;28;20083;-64
2022/08/07 13:36:42;;;;;;;2.03;1.30;;;;;;;;;;5051368;28;19920;-64
2022/08/07 13:39:21;;;;;;;1.80;1.60;;;;;;;;;;5051398;28;20540;-64
2022/08/07 13:41:49;;;;;;;1.87;1.60;;;;;;;;;;5051243;28;20049;-64
2022/08/07 13:44:20;;;;;;;1.60;1.42;;;;;;;;;;5050711;28;20044;-63
2022/08/07 13:46:47;;;;;;;1.95;1.50;;;;;;;;;;5051060;28;20044;-64
2022/08/07 13:49:16;;;;;;;2.60;1.63;;;;;;;;;;5051259;28;20082;-64
2022/08/07 13:51:44;;;;;;;4.97;1.40;;;;;;;;;;5051113;28;20045;-64
2022/08/07 13:54:11;;;;;;;1.98;1.35;;;;;;;;;;5051742;28;20080;-64
2022/08/07 13:56:39;;;;;;;2.67;1.30;;;;;;;;;;5051176;28;20045;-64
2022/08/07 13:59:07;;;;;;;2.78;1.50;;;;;;;;;;5049902;28;20033;-64
2022/08/07 14:01:37;;;;;;;2.33;1.48;;;;;;;;;;5051539;28;20060;-64
2022/08/07 14:04:13;;;;;;;2.25;1.58;;;;;;;;;;5051538;28;20048;-64
2022/08/07 14:06:42;;;;;;;2.58;1.23;;;;;;;;;;5033579;28;20120;-64
2022/08/07 14:09:09;;;;;;;3.10;1.20;;;;;;;;;;5033053;28;20045;-64
2022/08/07 14:11:44;;;;;;;2.08;1.30;;;;;;;;;;5054226;28;20048;-64
2022/08/07 14:14:11;;;;;;;2.67;1.42;;;;;;;;;;5036465;28;20041;-64
2022/08/07 14:16:39;;;;;;;1.90;1.38;;;;;;;;;;5055245;28;20041;-64
2022/08/07 14:19:11;;;;;;;2.13;1.48;;;;;;;;;;5055057;28;20098;-64
2022/08/07 14:21:45;;;;;;;2.65;1.80;;;;;;;;;;5055228;28;20128;-64
2022/08/07 14:24:28;;;;;;;2.28;1.42;;;;;;;;;;5037347;28;20128;-64
2022/08/07 14:26:56;;;;;;;1.98;1.30;;;;;;;;;;5054070;28;20099;-64
2022/08/07 14:29:29;;;;;;;1.85;1.45;;;;;;;;;;5054855;28;20040;-64
2022/08/07 14:31:58;;;;;;;1.48;1.30;;;;;;;;;;5054968;28;20052;-64
2022/08/07 14:34:25;;;;;;;2.08;1.50;;;;;;;;;;5054987;28;20037;-64
2022/08/07 14:36:52;;;;;;;2.00;1.40;;;;;;;;;;5054780;28;20076;-64
2022/08/07 14:39:19;;;;;;;2.13;1.55;;;;;;;;;;5054776;28;20041;-64
2022/08/07 14:41:49;;;;;;;1.63;1.20;;;;;;;;;;5053375;28;20040;-64
2022/08/07 14:44:16;;;;;;;2.85;1.40;;;;;;;;;;5054720;28;20049;-64
2022/08/07 14:46:43;;;;;;;1.38;1.20;;;;;;;;;;5053266;28;20371;-64
2022/08/07 14:49:09;;;;;;;1.75;1.30;;;;;;;;;;5053969;28;20124;-64
2022/08/07 14:51:36;;;;;;;1.75;1.30;;;;;;;;;;5054955;28;20064;-64
2022/08/07 14:54:03;;;;;;;1.95;1.50;;;;;;;;;;5054313;28;20033;-64
2022/08/07 14:56:30;;;;;;;1.90;1.40;;;;;;;;;;5053251;28;20045;-64
2022/08/07 14:59:06;;;;;;;3.90;1.60;;;;;;;;;;5053861;28;20045;-64
2022/08/07 15:01:36;;;;;;;2.30;1.70;;;;;;;;;;5054691;28;20520;-64
2022/08/07 15:04:03;;;;;;;1.70;1.30;;;;;;;;;;5054378;28;20469;-64